Time;durP1;ratioP1;P1;durP2;ratioP2;P2;SDS_P1;SDS_P2;PMS_P1;PMS_P2;Temp;Humidity;BMP_temperature;BMP_pressure;BME280_temperature;BME280_humidity;BME280_pressure;Samples;Min_cycle;Max_cycle;Signal;HPM_P1;HPM_P2
2022/07/16 00:02:18;;;;;;;4.38;3.88;;;;;;;20.07;57.45;94975.91;5094948;27;20211;-68
2022/07/16 00:04:44;;;;;;;5.10;4.05;;;;;;;20.01;57.74;94986.78;5119794;28;20176;-68
2022/07/16 00:07:13;;;;;;;6.57;3.58;;;;;;;19.96;57.35;94981.63;5119363;28;20608;-68
2022/07/16 00:09:40;;;;;;;4.25;3.85;;;;;;;19.92;57.75;94984.47;5119777;28;20184;-68
2022/07/16 00:12:07;;;;;;;4.65;3.92;;;;;;;19.86;57.85;94986.16;5119107;28;20282;-68
2022/07/16 00:14:34;;;;;;;6.50;4.05;;;;;;;19.86;58.38;94983.34;5119894;28;20195;-68
2022/07/16 00:17:01;;;;;;;5.15;4.15;;;;;;;19.84;57.85;94982.94;5118463;28;20216;-68
2022/07/16 00:19:26;;;;;;;6.72;3.85;;;;;;;19.86;58.51;94977.75;5101394;28;20191;-68
2022/07/16 00:21:54;;;;;;;4.50;4.10;;;;;;;19.89;58.09;94976.88;5118988;28;20209;-68
2022/07/16 00:24:24;;;;;;;4.30;3.90;;;;;;;19.93;58.52;94980.47;5118498;28;20222;-68
2022/07/16 00:26:51;;;;;;;7.07;4.20;;;;;;;19.93;58.24;94986.06;5118991;28;20191;-68
2022/07/16 00:29:18;;;;;;;5.03;4.30;;;;;;;19.86;58.56;94985.31;5119251;28;20199;-68
2022/07/16 00:31:46;;;;;;;5.03;4.18;;;;;;;19.79;58.44;94982.59;5119416;28;20215;-68
2022/07/16 00:34:13;;;;;;;4.70;4.30;;;;;;;19.69;58.91;94984.31;5119162;28;20203;-68
2022/07/16 00:36:40;;;;;;;7.07;4.57;;;;;;;19.64;59.47;94982.72;5118346;28;20219;-68
2022/07/16 00:39:08;;;;;;;4.80;3.95;;;;;;;19.66;59.38;94976.72;5119054;28;20195;-68
2022/07/16 00:41:37;;;;;;;5.75;4.40;;;;;;;19.66;58.94;94976.72;5117843;28;20200;-68
2022/07/16 00:44:06;;;;;;;4.95;4.15;;;;;;;19.66;59.54;94985.91;5117775;28;20240;-68
2022/07/16 00:46:33;;;;;;;5.63;4.30;;;;;;;19.67;59.48;94987.50;5118137;28;20191;-68
2022/07/16 00:49:00;;;;;;;4.32;4.00;;;;;;;19.68;58.47;94985.50;5118963;28;20176;-68
2022/07/16 00:51:28;;;;;;;6.97;4.30;;;;;;;19.70;58.06;94977.50;5118219;28;20206;-68
2022/07/16 00:53:56;;;;;;;4.28;3.95;;;;;;;19.68;58.34;94983.50;5117735;28;20227;-68
2022/07/16 00:56:23;;;;;;;4.15;3.78;;;;;;;19.74;58.21;94988.66;5118031;28;20212;-68
2022/07/16 00:58:52;;;;;;;4.55;4.13;;;;;;;19.79;57.85;94985.38;5117491;28;20682;-68
2022/07/16 01:01:19;;;;;;;4.50;3.67;;;;;;;19.82;57.21;94992.97;5118044;28;20192;-68
2022/07/16 01:03:47;;;;;;;4.57;4.18;;;;;;;19.82;57.41;94988.16;5117974;28;20199;-68
2022/07/16 01:06:14;;;;;;;4.00;3.70;;;;;;;19.81;56.98;94992.16;5116772;28;20210;-68
2022/07/16 01:08:45;;;;;;;4.13;3.72;;;;;;;19.79;57.07;94991.00;5117727;28;20503;-68
2022/07/16 01:11:12;;;;;;;4.05;3.65;;;;;;;19.73;58.04;94984.28;5117596;28;20192;-68
2022/07/16 01:13:41;;;;;;;4.55;4.07;;;;;;;19.62;58.79;94996.34;5117524;28;20207;-68
2022/07/16 01:16:10;;;;;;;6.05;4.35;;;;;;;19.48;58.93;94997.22;5118162;28;20188;-68
2022/07/16 01:18:37;;;;;;;4.68;4.13;;;;;;;19.38;59.42;94991.72;5117419;28;20223;-68
2022/07/16 01:21:04;;;;;;;4.45;4.05;;;;;;;19.31;59.17;94991.78;5118276;28;20176;-68
2022/07/16 01:23:33;;;;;;;3.90;3.50;;;;;;;19.25;59.48;94997.03;5117557;28;20200;-68
2022/07/16 01:26:00;;;;;;;3.65;3.38;;;;;;;19.15;59.27;94990.31;5118257;28;20188;-68
2022/07/16 01:28:26;;;;;;;5.38;3.60;;;;;;;19.09;59.36;94997.53;5118310;28;20192;-68
2022/07/16 01:30:53;;;;;;;4.28;3.67;;;;;;;19.08;59.48;94995.94;5117262;28;20200;-68
2022/07/16 01:33:25;;;;;;;4.57;3.85;;;;;;;19.10;59.82;94996.34;5116896;28;20203;-68
2022/07/16 01:35:56;;;;;;;4.85;3.83;;;;;;;19.05;59.98;94993.97;5117560;28;20203;-68
2022/07/16 01:38:23;;;;;;;4.20;3.85;;;;;;;19.00;59.86;94989.59;5117699;28;20203;-68
2022/07/16 01:40:51;;;;;;;4.57;4.18;;;;;;;18.94;60.21;94991.22;5117934;28;20202;-68
2022/07/16 01:43:19;;;;;;;4.05;3.65;;;;;;;18.90;60.20;94992.47;5117656;28;20616;-68
2022/07/16 01:45:46;;;;;;;4.93;3.90;;;;;;;18.93;60.37;94994.44;5117848;28;20236;-68
2022/07/16 01:48:14;;;;;;;4.95;3.90;;;;;;;18.96;60.23;94991.63;5117182;28;20196;-68
2022/07/16 01:50:43;;;;;;;4.82;3.70;;;;;;;19.02;59.94;94991.19;5117468;28;20241;-68
2022/07/16 01:53:10;;;;;;;4.22;3.83;;;;;;;19.02;59.46;94994.78;5116577;28;20327;-68
2022/07/16 01:55:37;;;;;;;5.45;3.97;;;;;;;19.00;60.20;94997.19;5116670;28;20612;-68
2022/07/16 01:58:07;;;;;;;4.65;3.90;;;;;;;18.94;60.37;94999.63;5117515;28;20203;-68
2022/07/16 02:00:34;;;;;;;4.13;3.72;;;;;;;18.90;60.14;95007.22;5117267;28;20195;-68
2022/07/16 02:03:01;;;;;;;4.22;3.55;;;;;;;18.92;60.38;95009.63;5116480;28;20203;-68
2022/07/16 02:05:28;;;;;;;4.50;4.10;;;;;;;18.93;60.34;95008.41;5116520;28;20191;-68
2022/07/16 02:07:55;;;;;;;4.47;4.00;;;;;;;18.91;60.62;95006.00;5117069;28;20599;-68
2022/07/16 02:10:22;;;;;;;4.10;3.63;;;;;;;18.92;60.59;95002.03;5117130;28;20195;-68
2022/07/16 02:12:48;;;;;;;4.10;3.70;;;;;;;18.93;60.28;95014.81;5115999;28;20188;-68
2022/07/16 02:15:17;;;;;;;4.32;3.80;;;;;;;18.93;60.26;95014.81;5116478;28;20199;-68
2022/07/16 02:17:44;;;;;;;5.55;3.83;;;;;;;18.94;60.04;95010.00;5116436;28;20215;-68
2022/07/16 02:20:11;;;;;;;5.50;3.58;;;;;;;18.95;60.32;95006.81;5116893;28;20196;-68
2022/07/16 02:22:38;;;;;;;5.75;4.05;;;;;;;18.91;60.37;95020.00;5116791;28;20226;-68
2022/07/16 02:25:06;;;;;;;3.75;3.45;;;;;;;18.84;60.38;95028.41;5117057;28;20218;-68
2022/07/16 02:27:33;;;;;;;4.05;3.65;;;;;;;18.76;60.15;95018.47;5116982;28;20530;-68
2022/07/16 02:30:00;;;;;;;4.03;3.55;;;;;;;18.73;60.01;95020.09;5116129;28;20196;-68
2022/07/16 02:32:29;;;;;;;3.63;3.33;;;;;;;18.75;59.39;95025.28;5117013;28;20188;-68
2022/07/16 02:34:56;;;;;;;3.47;3.17;;;;;;;18.85;58.48;95027.22;5115988;28;20204;-68
2022/07/16 02:37:23;;;;;;;3.63;3.30;;;;;;;18.95;58.27;95029.19;5115789;28;20625;-68
2022/07/16 02:39:50;;;;;;;3.45;3.15;;;;;;;19.02;57.89;95019.94;5116528;28;20627;-68
2022/07/16 02:42:17;;;;;;;4.70;3.40;;;;;;;19.03;57.71;95023.50;5115769;28;20188;-68
2022/07/16 02:44:44;;;;;;;4.85;3.40;;;;;;;19.03;58.19;95024.34;5116692;28;20248;-68
2022/07/16 02:47:10;;;;;;;6.10;3.53;;;;;;;18.93;59.25;95025.97;5116921;28;20203;-68
2022/07/16 02:49:39;;;;;;;4.00;3.63;;;;;;;18.83;59.61;95023.25;5116791;28;20184;-68
2022/07/16 02:52:06;;;;;;;5.65;3.75;;;;;;;18.69;59.72;95024.88;5116535;28;20188;-68
2022/07/16 02:54:32;;;;;;;3.97;3.60;;;;;;;18.63;59.92;95025.72;5115442;28;20231;-68
2022/07/16 02:56:59;;;;;;;3.80;3.50;;;;;;;18.59;60.40;95031.31;5116340;28;20191;-68
2022/07/16 02:59:26;;;;;;;4.30;3.90;;;;;;;18.58;60.06;95029.72;5116036;28;20531;-68
2022/07/16 03:01:53;;;;;;;3.88;3.50;;;;;;;18.57;60.47;95028.13;5115506;28;20196;-68
2022/07/16 03:04:20;;;;;;;4.80;3.53;;;;;;;18.49;60.96;95037.75;5116053;28;20195;-68
2022/07/16 03:06:48;;;;;;;5.03;3.78;;;;;;;18.44;61.27;95038.13;5115007;28;20192;-68
2022/07/16 03:09:15;;;;;;;4.40;4.00;;;;;;;18.37;61.34;95030.56;5116247;28;20195;-68
2022/07/16 03:11:41;;;;;;;4.28;3.88;;;;;;;18.39;61.55;95028.19;5115316;28;20196;-68
2022/07/16 03:14:08;;;;;;;3.97;3.55;;;;;;;18.39;61.26;95039.38;5116292;28;20204;-68
2022/07/16 03:16:35;;;;;;;3.92;3.60;;;;;;;18.42;61.18;95035.75;5115831;28;20179;-68
2022/07/16 03:19:02;;;;;;;4.07;3.67;;;;;;;18.45;61.19;95032.16;5116202;28;20210;-68
2022/07/16 03:21:28;;;;;;;4.75;3.63;;;;;;;18.47;60.89;95032.53;5115856;28;20622;-68
2022/07/16 03:23:57;;;;;;;4.32;3.85;;;;;;;18.47;61.51;95037.34;5115811;28;20199;-68
2022/07/16 03:26:24;;;;;;;4.75;4.00;;;;;;;18.48;61.64;95038.91;5115911;28;20188;-68
2022/07/16 03:28:51;;;;;;;7.30;4.70;;;;;;;18.44;62.03;95044.50;5114816;28;20604;-68
2022/07/16 03:31:18;;;;;;;4.88;3.97;;;;;;;18.39;62.05;95042.16;5115805;28;20187;-68
2022/07/16 03:33:45;;;;;;;6.72;4.22;;;;;;;18.38;62.72;95048.16;5115593;28;20258;-68
2022/07/16 03:36:12;;;;;;;7.03;4.13;;;;;;;18.39;62.49;95050.53;5115799;28;20191;-68
2022/07/16 03:41:24;;;;;;;7.20;4.32;;;;;;;18.42;62.05;95054.53;5115718;28;20172;-68
2022/07/16 03:43:51;;;;;;;6.38;4.10;;;;;;;18.40;62.20;95054.91;5115409;28;20188;-67
2022/07/16 03:46:18;;;;;;;6.90;4.50;;;;;;;18.37;62.43;95055.72;5114795;28;20206;-68
2022/07/16 03:48:45;;;;;;;7.70;4.22;;;;;;;18.34;62.39;95059.34;5115767;28;20179;-68
2022/07/16 03:51:11;;;;;;;9.02;4.57;;;;;;;18.31;62.46;95062.94;5114516;28;20615;-68
2022/07/16 03:53:38;;;;;;;5.57;4.10;;;;;;;18.28;62.72;95064.53;5115520;28;20227;-68
2022/07/16 03:56:06;;;;;;;4.93;4.25;;;;;;;18.25;62.54;95058.94;5115093;28;20595;-68
2022/07/16 03:58:35;;;;;;;4.13;3.70;;;;;;;18.23;62.41;95064.94;5115402;28;20203;-68
2022/07/16 04:01:02;;;;;;;10.45;4.72;;;;;;;18.26;62.87;95064.16;5114699;28;20195;-68
2022/07/16 04:03:28;;;;;;;7.38;4.72;;;;;;;18.34;62.09;95058.50;5115562;28;20191;-68
2022/07/16 04:05:55;;;;;;;7.35;4.40;;;;;;;18.39;63.10;95056.13;5115879;28;20214;-68
2022/07/16 04:08:22;;;;;;;7.03;4.18;;;;;;;18.48;62.58;95052.88;5114753;28;20207;-68
2022/07/16 04:10:49;;;;;;;6.00;4.22;;;;;;;18.52;62.19;95057.28;5115132;28;20184;-67
2022/07/16 04:13:16;;;;;;;7.78;4.57;;;;;;;18.57;62.80;95052.47;5114475;28;20211;-68
2022/07/16 04:15:44;;;;;;;6.70;4.70;;;;;;;18.58;62.71;95057.63;5114719;28;20195;-67
2022/07/16 04:18:11;;;;;;;7.25;4.80;;;;;;;18.62;62.84;95050.03;5115348;28;20212;-68
2022/07/16 04:20:38;;;;;;;7.18;4.90;;;;;;;18.66;62.73;95056.41;5115034;28;20611;-68
2022/07/16 04:23:05;;;;;;;7.35;4.80;;;;;;;18.70;62.32;95056.38;5115335;28;20187;-68
2022/07/16 04:25:32;;;;;;;4.70;4.30;;;;;;;18.73;62.41;95059.19;5115051;28;20207;-67
2022/07/16 04:27:58;;;;;;;7.10;4.57;;;;;;;18.77;62.51;95053.59;5114798;28;20595;-68
2022/07/16 04:30:25;;;;;;;6.50;4.18;;;;;;;18.80;62.28;95058.38;5115311;28;20180;-68
2022/07/16 04:32:54;;;;;;;6.10;4.82;;;;;;;18.85;62.00;95057.19;5115195;28;20191;-68
2022/07/16 04:35:21;;;;;;;7.25;5.38;;;;;;;18.89;61.83;95063.53;5114729;28;20207;-68
2022/07/16 04:37:47;;;;;;;5.03;4.53;;;;;;;18.93;61.50;95061.50;5115154;28;20184;-68
2022/07/16 04:40:15;;;;;;;7.07;5.13;;;;;;;18.97;60.99;95065.09;5114257;28;20200;-68
2022/07/16 04:42:43;;;;;;;7.45;5.07;;;;;;;19.00;60.69;95062.28;5118045;28;20187;-68
2022/07/16 04:45:12;;;;;;;7.13;5.10;;;;;;;19.06;60.43;95071.00;5118996;28;20180;-68
2022/07/16 04:47:39;;;;;;;6.10;4.78;;;;;;;19.10;59.91;95077.41;5117738;28;20195;-67
2022/07/16 04:50:09;;;;;;;4.97;4.20;;;;;;;19.14;59.63;95075.38;5118350;28;20196;-68
2022/07/16 04:52:36;;;;;;;4.47;4.07;;;;;;;19.16;59.25;95083.34;5118686;28;20198;-68
2022/07/16 04:55:03;;;;;;;6.63;4.43;;;;;;;19.21;58.78;95085.72;5118514;28;20192;-68
2022/07/16 04:57:30;;;;;;;5.07;4.20;;;;;;;19.24;58.60;95084.88;5118823;28;20192;-68
2022/07/16 04:59:57;;;;;;;4.53;3.85;;;;;;;19.28;58.81;95084.88;5118688;28;20203;-68
2022/07/16 05:05:10;;;;;;;4.38;3.97;;;;;;;19.33;58.31;95088.03;5118377;28;20183;-68
2022/07/16 05:07:36;;;;;;;5.18;4.22;;;;;;;19.36;58.39;95087.22;5118012;28;20192;-68
2022/07/16 05:10:04;;;;;;;5.03;4.05;;;;;;;19.38;57.69;95082.00;5118554;28;20192;-67
2022/07/16 05:12:31;;;;;;;6.22;4.13;;;;;;;19.42;57.79;95090.38;5118164;28;20636;-68
2022/07/16 05:14:57;;;;;;;4.95;4.35;;;;;;;19.47;57.63;95089.97;5117423;28;20207;-68
2022/07/16 05:17:24;;;;;;;4.57;4.18;;;;;;;19.48;57.89;95089.53;5118222;28;20180;-67
2022/07/16 05:19:51;;;;;;;4.28;3.90;;;;;;;19.49;58.23;95093.91;5117982;28;20216;-67
2022/07/16 05:22:19;;;;;;;5.13;4.60;;;;;;;19.53;58.54;95093.09;5117509;28;20203;-68
2022/07/16 05:24:46;;;;;;;5.30;4.47;;;;;;;19.52;58.39;95097.09;5117343;28;20210;-68
2022/07/16 05:27:13;;;;;;;4.55;4.13;;;;;;;19.55;57.68;95094.28;5117412;28;20184;-67
2022/07/16 05:29:39;;;;;;;4.68;4.25;;;;;;;19.60;57.83;95087.44;5117271;28;20240;-68
2022/07/16 05:32:06;;;;;;;7.10;4.78;;;;;;;19.62;58.24;95088.66;5117718;28;20188;-67
2022/07/16 05:34:33;;;;;;;6.15;4.50;;;;;;;19.65;58.06;95090.66;5117394;28;20221;-67
2022/07/16 05:37:00;;;;;;;6.78;4.78;;;;;;;19.69;58.12;95090.63;5117120;28;20619;-67
2022/07/16 05:39:28;;;;;;;5.30;4.80;;;;;;;19.71;57.45;95088.97;5117643;28;20203;-67
2022/07/16 05:41:55;;;;;;;6.03;5.43;;;;;;;19.75;57.60;95088.97;5117977;28;20188;-68
2022/07/16 05:44:22;;;;;;;5.22;4.82;;;;;;;19.78;57.38;95092.94;5117122;28;20604;-68
2022/07/16 05:46:48;;;;;;;4.97;4.50;;;;;;;19.85;57.33;95092.88;5117574;28;20176;-68
2022/07/16 05:49:15;;;;;;;5.32;4.68;;;;;;;19.86;57.37;95092.50;5116804;28;20196;-68
2022/07/16 05:51:42;;;;;;;6.97;5.40;;;;;;;19.91;57.37;95102.44;5117511;28;20532;-68
2022/07/16 05:54:09;;;;;;;5.30;4.80;;;;;;;19.92;57.67;95098.44;5117184;28;20239;-68
2022/07/16 05:56:37;;;;;;;5.93;5.03;;;;;;;19.95;57.71;95098.41;5117921;28;20188;-68
2022/07/16 05:59:04;;;;;;;5.57;5.07;;;;;;;20.02;57.16;95096.75;5117643;27;20199;-68
2022/07/16 06:01:30;;;;;;;6.97;4.75;;;;;;;20.07;57.01;95096.28;5117796;28;20176;-68
2022/07/16 06:03:57;;;;;;;6.55;4.88;;;;;;;20.13;56.83;95098.25;5117407;28;20184;-68
2022/07/16 06:06:24;;;;;;;5.57;5.18;;;;;;;20.18;56.70;95091.38;5117329;28;20184;-68
2022/07/16 06:08:51;;;;;;;6.55;4.80;;;;;;;20.25;56.98;95090.53;5116575;28;20192;-68
2022/07/16 06:11:18;;;;;;;4.88;4.43;;;;;;;20.30;57.31;95092.88;5117765;28;20187;-67
2022/07/16 06:13:46;;;;;;;6.65;4.50;;;;;;;20.35;57.34;95100.84;5116381;28;20692;-68
2022/07/16 06:16:13;;;;;;;5.53;4.35;;;;;;;20.39;57.47;95091.19;5116836;28;20210;-68
2022/07/16 06:18:41;;;;;;;4.50;4.20;;;;;;;20.41;57.52;95083.16;5116973;28;20204;-68
2022/07/16 06:21:08;;;;;;;5.20;4.80;;;;;;;20.46;57.49;95081.13;5116514;28;20257;-68
2022/07/16 06:23:35;;;;;;;6.40;4.47;;;;;;;20.50;58.11;95091.09;5116655;28;20204;-67
2022/07/16 06:26:02;;;;;;;4.90;4.40;;;;;;;20.55;58.39;95082.25;5116793;28;20214;-67
2022/07/16 06:28:29;;;;;;;4.32;4.03;;;;;;;20.59;58.39;95085.81;5117191;28;20188;-67
2022/07/16 06:30:57;;;;;;;4.50;4.10;;;;;;;20.62;58.40;95079.34;5115775;28;20604;-68
2022/07/16 06:33:24;;;;;;;5.25;4.68;;;;;;;20.66;58.93;95077.31;5116088;28;20199;-68
2022/07/16 06:35:50;;;;;;;6.90;4.75;;;;;;;20.73;58.88;95073.63;5116651;28;20180;-68
2022/07/16 06:38:17;;;;;;;4.70;4.22;;;;;;;20.78;58.75;95077.97;5116029;28;20196;-67
2022/07/16 06:40:45;;;;;;;4.68;4.35;;;;;;;20.85;58.59;95078.69;5116211;28;20503;-68
2022/07/16 06:43:12;;;;;;;4.13;3.83;;;;;;;20.91;58.22;95088.22;5116807;28;20185;-68
2022/07/16 06:45:39;;;;;;;4.70;4.35;;;;;;;20.97;58.83;95093.38;5116079;28;20549;-67
2022/07/16 06:48:07;;;;;;;4.72;4.43;;;;;;;21.00;58.54;95084.13;5116706;28;20191;-67
2022/07/16 06:50:34;;;;;;;5.03;4.47;;;;;;;21.02;58.67;95085.25;5116667;28;20184;-68
2022/07/16 06:53:00;;;;;;;6.45;5.00;;;;;;;21.04;57.96;95082.06;5116266;28;20242;-68
2022/07/16 06:55:28;;;;;;;6.90;4.78;;;;;;;21.09;58.43;95085.19;5116561;28;20198;-68
2022/07/16 06:57:54;;;;;;;5.38;4.65;;;;;;;21.13;58.19;95087.94;5116589;28;20192;-68
2022/07/16 07:00:21;;;;;;;7.10;4.70;;;;;;;21.15;58.02;95086.31;5115477;28;20241;-68
2022/07/16 07:02:48;;;;;;;5.35;4.68;;;;;;;21.18;58.25;95089.50;5116092;28;20203;-68
2022/07/16 07:05:17;;;;;;;5.43;4.35;;;;;;;21.22;58.39;95091.03;5114916;28;20199;-68
2022/07/16 07:07:43;;;;;;;5.90;4.80;;;;;;;21.28;58.31;95094.97;5115643;28;20202;-68
2022/07/16 07:10:10;;;;;;;4.95;4.55;;;;;;;21.32;58.58;95092.09;5115677;28;20210;-68
2022/07/16 07:12:37;;;;;;;4.75;4.22;;;;;;;21.35;59.07;95100.50;5115456;28;20206;-67
2022/07/16 07:15:05;;;;;;;5.25;4.75;;;;;;;21.37;58.29;95100.84;5116443;28;20646;-67
2022/07/16 07:17:32;;;;;;;4.65;4.18;;;;;;;21.43;57.83;95095.59;5115188;28;20608;-67
2022/07/16 07:19:58;;;;;;;4.32;4.03;;;;;;;21.50;57.40;95092.66;5116096;28;20203;-67
2022/07/16 07:22:28;;;;;;;6.55;4.50;;;;;;;21.54;58.09;95085.00;5115260;28;20196;-67
2022/07/16 07:24:54;;;;;;;4.97;4.55;;;;;;;21.59;57.46;95083.72;5115096;28;20207;-67
2022/07/16 07:27:22;;;;;;;6.40;4.25;;;;;;;21.62;56.35;95082.88;5115478;28;20192;-68
2022/07/16 07:29:49;;;;;;;4.53;4.15;;;;;;;21.68;55.07;95086.78;5115220;28;20298;-68
2022/07/16 07:32:16;;;;;;;4.07;3.75;;;;;;;21.74;54.44;95087.09;5115986;28;20183;-68
2022/07/16 07:34:42;;;;;;;5.00;3.72;;;;;;;21.81;53.73;95089.78;5115862;28;20199;-68
2022/07/16 07:37:09;;;;;;;5.35;3.70;;;;;;;21.86;53.84;95087.31;5115677;28;20204;-68
2022/07/16 07:39:38;;;;;;;4.70;4.30;;;;;;;21.94;53.73;95090.00;5114856;28;20215;-68
2022/07/16 07:42:05;;;;;;;4.72;4.05;;;;;;;21.99;54.64;95093.09;5115696;28;20187;-68
2022/07/16 07:44:31;;;;;;;4.55;4.10;;;;;;;22.10;54.46;95093.72;5115699;28;20188;-68
2022/07/16 07:46:58;;;;;;;7.32;4.80;;;;;;;22.14;53.91;95093.69;5115647;28;20192;-68
2022/07/16 07:49:25;;;;;;;4.95;4.20;;;;;;;22.19;54.52;95100.84;5115637;28;20195;-68
2022/07/16 07:51:54;;;;;;;5.03;4.45;;;;;;;22.23;54.61;95096.75;5115640;28;20187;-68
2022/07/16 07:54:21;;;;;;;4.22;3.80;;;;;;;22.37;53.57;95100.50;5115252;28;20239;-68
2022/07/16 07:56:49;;;;;;;4.30;4.00;;;;;;;22.42;52.70;95094.41;5115300;28;20268;-68
2022/07/16 07:59:16;;;;;;;4.85;4.45;;;;;;;22.46;53.88;95098.72;5115549;28;20215;-68
2022/07/16 08:01:44;;;;;;;4.68;4.28;;;;;;;22.57;54.72;95102.13;5114972;28;20204;-68
2022/07/16 08:04:10;;;;;;;5.03;3.70;;;;;;;22.66;53.00;95095.97;5115705;28;20230;-68
2022/07/16 08:06:37;;;;;;;5.25;4.05;;;;;;;22.72;53.35;95085.00;5115730;28;20180;-68
2022/07/16 08:09:04;;;;;;;4.95;4.57;;;;;;;22.82;53.73;95084.00;5114661;28;20195;-68
2022/07/16 08:11:31;;;;;;;5.00;4.28;;;;;;;22.90;53.48;95082.63;5115229;28;20192;-68
2022/07/16 08:13:59;;;;;;;4.63;4.22;;;;;;;22.94;52.34;95086.19;5114473;28;20543;-68
2022/07/16 08:16:26;;;;;;;3.88;3.60;;;;;;;23.02;51.58;95081.19;5115564;28;20210;-68
2022/07/16 08:18:53;;;;;;;4.28;3.80;;;;;;;23.06;52.71;95087.56;5119144;28;20649;-68
2022/07/16 08:21:20;;;;;;;4.32;3.55;;;;;;;23.16;52.46;95086.53;5119020;28;20199;-68
2022/07/16 08:26:31;;;;;;;4.38;3.97;;;;;;;23.31;51.52;95089.81;5118857;28;20187;-68
2022/07/16 08:28:59;;;;;;;4.20;3.90;;;;;;;23.35;50.64;95090.56;5118209;28;20203;-68
2022/07/16 08:31:26;;;;;;;4.80;4.22;;;;;;;23.41;52.34;95088.00;5119048;28;20187;-68
2022/07/16 08:33:53;;;;;;;4.10;3.70;;;;;;;23.45;50.60;95083.09;5119262;28;20191;-68
2022/07/16 08:36:20;;;;;;;4.63;4.25;;;;;;;23.51;49.80;95084.16;5118949;28;20184;-68
2022/07/16 08:38:47;;;;;;;5.07;4.35;;;;;;;23.58;50.30;95084.00;5118524;28;20195;-68
2022/07/16 08:41:14;;;;;;;4.40;4.03;;;;;;;23.67;50.24;95097.50;5119128;28;20253;-68
2022/07/16 08:43:41;;;;;;;4.57;4.28;;;;;;;23.74;50.47;95086.06;5119023;28;20184;-68
2022/07/16 08:46:10;;;;;;;5.00;4.50;;;;;;;23.84;49.82;95093.47;5118289;28;20208;-68
2022/07/16 08:48:38;;;;;;;4.35;4.05;;;;;;;23.85;48.84;95088.63;5118697;28;20600;-68
2022/07/16 08:51:09;;;;;;;5.53;5.03;;;;;;;23.87;50.13;95089.00;5117947;28;20202;-68
2022/07/16 08:53:37;;;;;;;4.40;4.10;;;;;;;23.90;48.89;95086.09;5118010;28;20242;-68
2022/07/16 08:56:05;;;;;;;6.93;6.20;;;;;;;23.96;50.16;95094.78;5118276;28;20215;-68
2022/07/16 08:58:32;;;;;;;4.60;4.25;;;;;;;24.01;48.84;95089.44;5118044;28;20188;-68
2022/07/16 09:01:00;;;;;;;4.72;4.32;;;;;;;24.13;49.29;95089.97;5117639;28;20294;-68
2022/07/16 09:03:28;;;;;;;4.45;4.05;;;;;;;24.23;48.43;95091.72;5119277;28;20211;-68
2022/07/16 09:05:55;;;;;;;4.95;4.63;;;;;;;24.35;51.76;95095.84;5117700;28;20248;-68
2022/07/16 09:08:22;;;;;;;8.13;5.15;;;;;;;24.55;53.25;95095.75;5118889;28;20184;-68
2022/07/16 09:10:49;;;;;;;4.32;3.92;;;;;;;24.68;48.89;95096.59;5118928;28;20230;-68
2022/07/16 09:13:16;;;;;;;4.53;4.20;;;;;;;24.77;48.13;95091.13;5117515;28;20200;-68
2022/07/16 09:15:44;;;;;;;5.60;4.05;;;;;;;24.80;47.11;95087.44;5118647;28;20194;-68
2022/07/16 09:18:20;;;;;;;4.43;4.10;;;;;;;24.87;47.79;95080.78;5118553;28;20184;-68
2022/07/16 09:20:51;;;;;;;4.10;3.70;;;;;;;24.92;49.27;95083.06;5117664;28;20211;-68
2022/07/16 09:23:20;;;;;;;6.43;5.32;;;;;;;25.09;50.61;95078.13;5118337;28;20184;-68
2022/07/16 09:25:49;;;;;;;4.63;4.18;;;;;;;25.27;46.27;95077.63;5118153;28;20487;-68
2022/07/16 09:28:16;;;;;;;4.63;4.20;;;;;;;25.32;47.29;95072.25;5117075;28;20200;-68
2022/07/16 09:30:43;;;;;;;4.63;4.32;;;;;;;25.36;46.63;95072.13;5118263;28;20176;-68
2022/07/16 09:33:14;;;;;;;4.93;4.45;;;;;;;25.42;47.34;95076.00;5117384;28;20198;-68
2022/07/16 09:35:41;;;;;;;4.60;4.30;;;;;;;25.52;47.73;95074.06;5117547;28;20199;-68
2022/07/16 09:38:10;;;;;;;4.72;4.43;;;;;;;25.61;47.23;95069.34;5118073;28;20509;-68
2022/07/16 09:40:38;;;;;;;5.25;4.78;;;;;;;25.73;49.27;95073.41;5117686;28;20689;-68
2022/07/16 09:43:20;;;;;;;4.22;3.92;;;;;;;25.82;46.94;95069.94;5117071;28;20513;-68
2022/07/16 09:45:49;;;;;;;4.65;4.28;;;;;;;25.88;46.26;95066.06;5117187;28;20195;-68
2022/07/16 09:48:23;;;;;;;4.95;4.55;;;;;;;26.00;45.41;95060.84;5118169;28;20251;-68
2022/07/16 09:50:51;;;;;;;4.60;4.15;;;;;;;26.06;44.38;95067.53;5116909;28;20195;-68
2022/07/16 09:53:20;;;;;;;5.18;4.47;;;;;;;26.13;44.99;95064.47;5116928;28;20235;-68
2022/07/16 09:56:00;;;;;;;5.60;4.68;;;;;;;26.22;44.77;95058.09;5116827;28;20608;-68
2022/07/16 09:58:26;;;;;;;4.45;4.10;;;;;;;26.26;45.93;95059.59;5117408;28;20188;-68
2022/07/16 10:00:54;;;;;;;4.70;4.40;;;;;;;26.29;48.04;95063.53;5116257;28;20212;-68
2022/07/16 10:03:21;;;;;;;5.10;4.18;;;;;;;26.34;44.76;95058.09;5116837;28;20202;-68
2022/07/16 10:05:48;;;;;;;4.60;4.30;;;;;;;26.38;48.06;95057.97;5116841;28;20195;-68
2022/07/16 10:08:15;;;;;;;4.68;4.28;;;;;;;26.56;46.03;95058.16;5117191;28;20196;-68
2022/07/16 10:10:43;;;;;;;4.85;4.10;;;;;;;26.70;45.21;95053.25;5116509;28;20595;-68
2022/07/16 10:13:11;;;;;;;4.88;4.32;;;;;;;26.72;44.78;95043.03;5116357;28;20192;-68
2022/07/16 10:15:38;;;;;;;4.85;4.45;;;;;;;26.73;45.98;95047.47;5116451;28;20195;-68
2022/07/16 10:18:05;;;;;;;5.47;4.28;;;;;;;26.82;43.62;95044.69;5117498;28;20184;-68
2022/07/16 10:20:36;;;;;;;6.50;5.90;;;;;;;26.95;47.00;95049.53;5116155;28;20218;-68
2022/07/16 10:23:06;;;;;;;5.30;4.90;;;;;;;27.04;44.95;95039.03;5117111;28;20184;-68
2022/07/16 10:25:35;;;;;;;4.32;4.00;;;;;;;27.05;41.35;95039.81;5116207;28;20207;-68
2022/07/16 10:28:03;;;;;;;5.90;5.32;;;;;;;27.06;43.16;95033.72;5115969;28;20188;-68
2022/07/16 10:30:30;;;;;;;5.00;4.55;;;;;;;27.15;42.53;95035.84;5117081;28;20184;-68
2022/07/16 10:33:17;;;;;;;4.75;4.35;;;;;;;27.25;42.06;95031.03;5116010;28;20665;-68
2022/07/16 10:35:46;;;;;;;5.22;4.80;;;;;;;27.24;42.21;95024.59;5115732;28;20213;-68
2022/07/16 10:38:15;;;;;;;4.47;4.18;;;;;;;27.31;40.70;95035.63;5115957;28;20649;-68
2022/07/16 10:40:43;;;;;;;4.60;4.20;;;;;;;27.39;41.80;95033.31;5115007;28;20216;-68
2022/07/16 10:43:12;;;;;;;5.75;5.07;;;;;;;27.62;43.43;95029.16;5115804;28;20260;-68
2022/07/16 10:45:56;;;;;;;4.25;3.95;;;;;;;27.66;41.08;95035.47;5115688;28;20187;-68
2022/07/16 10:48:24;;;;;;;4.75;4.40;;;;;;;27.70;39.85;95029.66;5116660;28;20187;-68
2022/07/16 10:51:11;;;;;;;4.53;4.22;;;;;;;27.79;40.42;95035.41;5116602;28;20195;-68
2022/07/16 10:54:27;;;;;;;4.05;3.85;;;;;;;27.81;38.97;95030.84;5115498;28;20239;-68
2022/07/16 10:56:56;;;;;;;4.80;4.40;;;;;;;27.86;39.02;95035.13;5115605;28;20264;-68
2022/07/16 10:59:25;;;;;;;5.40;4.30;;;;;;;27.89;39.75;95033.38;5115901;28;20290;-68
2022/07/16 11:01:53;;;;;;;4.88;4.47;;;;;;;27.96;40.96;95024.59;5115474;28;20215;-68
2022/07/16 11:04:27;;;;;;;4.97;4.60;;;;;;;27.93;42.46;95025.53;5115161;28;20212;-68
2022/07/16 11:06:54;;;;;;;4.32;3.92;;;;;;;28.01;39.55;95012.66;5116329;28;20259;-68
2022/07/16 11:09:25;;;;;;;4.53;4.15;;;;;;;28.10;40.55;95020.38;5115315;28;20211;-68
2022/07/16 11:11:53;;;;;;;4.32;3.90;;;;;;;28.23;37.83;95018.22;5115234;28;20196;-68
2022/07/16 11:14:20;;;;;;;4.30;4.00;;;;;;;28.30;39.20;95023.56;5116232;28;20199;-68
2022/07/16 11:16:51;;;;;;;3.88;3.58;;;;;;;28.32;37.76;95009.69;5115217;28;20219;-68
2022/07/16 11:19:18;;;;;;;4.30;3.95;;;;;;;28.39;38.30;95015.09;5116110;28;20253;-68
2022/07/16 11:21:56;;;;;;;4.65;4.28;;;;;;;28.46;39.29;95011.94;5115107;28;20227;-68
2022/07/16 11:24:23;;;;;;;4.30;4.00;;;;;;;28.46;37.35;95014.78;5115231;28;20202;-68
2022/07/16 11:26:51;;;;;;;4.03;3.65;;;;;;;28.48;36.95;95014.34;5115180;28;20199;-68
2022/07/16 11:29:19;;;;;;;6.60;3.47;;;;;;;28.50;37.65;95008.97;5115270;28;20286;-68
2022/07/16 11:31:47;;;;;;;3.20;3.00;;;;;;;28.50;36.85;95015.41;5115780;28;20213;-68
2022/07/16 11:34:18;;;;;;;4.05;3.63;;;;;;;28.58;37.92;95010.25;5115957;28;20191;-68
2022/07/16 11:36:46;;;;;;;3.75;3.55;;;;;;;28.63;38.18;95009.59;5115806;28;20180;-68
2022/07/16 11:39:14;;;;;;;4.28;3.88;;;;;;;28.68;38.29;95005.34;5115608;28;20627;-68
2022/07/16 11:41:43;;;;;;;4.07;3.72;;;;;;;28.70;37.45;95012.13;5115785;28;20241;-68
2022/07/16 11:44:11;;;;;;;3.97;3.67;;;;;;;28.68;36.46;95011.00;5115936;28;20188;-68
2022/07/16 11:46:43;;;;;;;4.28;3.88;;;;;;;28.58;36.65;95010.25;5115761;28;20188;-68